createdAt,value
2023-04-15T00:01:37.251Z,99312.09
2023-04-15T00:04:39.972Z,99329.50
2023-04-15T00:07:42.437Z,99328.22
2023-04-15T00:10:46.730Z,99333.72
2023-04-15T00:13:49.398Z,99335.41
2023-04-15T00:16:56.275Z,99329.56
2023-04-15T00:20:00.064Z,99319.16
2023-04-15T00:23:04.136Z,99311.44
2023-04-15T00:26:06.500Z,99318.62
2023-04-15T00:29:09.242Z,99340.53
2023-04-15T00:32:11.576Z,99335.84
2023-04-15T00:35:16.598Z,99337.72
2023-04-15T00:38:18.967Z,99308.19
2023-04-15T00:41:23.053Z,99309.59
2023-04-15T00:44:25.790Z,99324.75
2023-04-15T00:47:29.877Z,99303.00
2023-04-15T00:50:32.196Z,99322.19
2023-04-15T00:53:34.773Z,99327.00
2023-04-15T00:56:38.689Z,99330.91
2023-04-15T00:59:41.746Z,99327.25
2023-04-15T01:02:44.238Z,99305.16
2023-04-15T01:05:47.526Z,99323.94
2023-04-15T01:08:50.636Z,99320.16
2023-04-15T01:11:53.823Z,99298.44
2023-04-15T01:14:56.777Z,99281.09
2023-04-15T01:17:59.615Z,99304.75
2023-04-15T01:21:05.329Z,99306.94
2023-04-15T01:24:10.532Z,99286.59
2023-04-15T01:27:12.926Z,99285.25
2023-04-15T01:30:15.683Z,99298.16
2023-04-15T01:33:18.035Z,99314.50
2023-04-15T01:36:21.364Z,99318.38
2023-04-15T01:39:23.714Z,99297.94
2023-04-15T01:42:27.646Z,99294.31
2023-04-15T01:45:30.355Z,99327.31
2023-04-15T01:48:33.478Z,99321.72
2023-04-15T01:51:35.802Z,99316.00
2023-04-15T01:54:38.540Z,99325.47
2023-04-15T01:57:41.241Z,99287.75
2023-04-15T02:00:44.068Z,99324.53
2023-04-15T02:03:47.885Z,99306.03
2023-04-15T02:06:50.751Z,99302.81
2023-04-15T02:09:53.344Z,99320.53
2023-04-15T02:12:55.630Z,99321.78
2023-04-15T02:15:59.714Z,99318.16
2023-04-15T02:19:02.298Z,99332.09
2023-04-15T02:22:05.281Z,99328.81
2023-04-15T02:25:08.696Z,99317.94
2023-04-15T02:28:11.413Z,99321.13
2023-04-15T02:31:14.515Z,99313.34
2023-04-15T02:34:17.104Z,99334.31
2023-04-15T02:37:20.914Z,99336.97
2023-04-15T02:40:23.560Z,99311.38
2023-04-15T02:43:26.473Z,99309.88
2023-04-15T02:46:28.947Z,99326.16
2023-04-15T02:49:31.743Z,99332.66
2023-04-15T02:52:34.053Z,99334.66
2023-04-15T02:55:36.990Z,99314.97
2023-04-15T02:58:40.688Z,99331.19
2023-04-15T03:01:43.737Z,99332.25
2023-04-15T03:04:46.142Z,99328.50
2023-04-15T03:07:48.725Z,99329.19
2023-04-15T03:10:52.859Z,99279.66
2023-04-15T03:13:55.713Z,99326.91
2023-04-15T03:16:59.582Z,99315.72
2023-04-15T03:20:06.267Z,99322.56
2023-04-15T03:23:10.130Z,99327.56
2023-04-15T03:26:26.322Z,99325.50
2023-04-15T03:29:28.783Z,99301.50
2023-04-15T03:32:31.724Z,99291.22
2023-04-15T03:35:34.830Z,99322.78
2023-04-15T03:38:37.431Z,99328.72
2023-04-15T03:41:39.703Z,99330.00
2023-04-15T03:44:42.445Z,99330.81
2023-04-15T03:47:44.923Z,99334.22
2023-04-15T03:50:48.368Z,99302.44
2023-04-15T03:53:51.228Z,99335.84
2023-04-15T03:56:53.931Z,99304.72
2023-04-15T03:59:56.321Z,99304.28
2023-04-15T04:02:59.120Z,99331.16
2023-04-15T04:06:02.003Z,99322.56
2023-04-15T04:09:04.426Z,99310.72
2023-04-15T04:12:07.318Z,99299.75
2023-04-15T04:15:10.005Z,99320.53
2023-04-15T04:18:13.245Z,99319.50
2023-04-15T04:21:15.658Z,99319.19
2023-04-15T04:24:18.262Z,99321.22
2023-04-15T04:27:20.795Z,99306.81
2023-04-15T04:30:23.457Z,99308.97
2023-04-15T04:33:26.194Z,99299.06
2023-04-15T04:36:28.784Z,99323.06
2023-04-15T04:39:31.253Z,99290.50
2023-04-15T04:42:33.937Z,99322.37
2023-04-15T04:45:36.360Z,99330.37
2023-04-15T04:48:39.400Z,99317.34
2023-04-15T04:51:41.951Z,99322.84
2023-04-15T04:54:44.578Z,99306.63
2023-04-15T04:57:47.375Z,99293.00
2023-04-15T05:00:50.019Z,99303.62
2023-04-15T05:03:52.404Z,99298.47
2023-04-15T05:06:55.064Z,99306.72
2023-04-15T05:09:57.429Z,99295.16
2023-04-15T05:13:00.099Z,99306.59
2023-04-15T05:16:02.626Z,99320.75
2023-04-15T05:19:05.244Z,99324.16
2023-04-15T05:22:08.249Z,99327.81
2023-04-15T05:25:10.905Z,99327.69
2023-04-15T05:28:13.314Z,99301.75
2023-04-15T05:31:16.562Z,99309.09
2023-04-15T05:34:18.995Z,99328.94
2023-04-15T05:37:22.349Z,99313.97
2023-04-15T05:40:24.659Z,99339.25
2023-04-15T05:43:27.240Z,99328.94
2023-04-15T05:46:29.596Z,99312.53
2023-04-15T05:49:32.192Z,99323.75
2023-04-15T05:52:34.533Z,99301.38
2023-04-15T05:55:37.168Z,99323.03
2023-04-15T05:58:39.504Z,99335.84
2023-04-15T06:01:42.124Z,99345.22
2023-04-15T06:04:44.742Z,99331.50
2023-04-15T06:07:48.581Z,99341.09
2023-04-15T06:10:51.524Z,99356.06
2023-04-15T06:13:53.904Z,99362.81
2023-04-15T06:16:56.462Z,99341.78
2023-04-15T06:19:58.787Z,99339.28
2023-04-15T06:23:01.441Z,99344.75
2023-04-15T06:26:03.816Z,99384.78
2023-04-15T06:29:06.752Z,99381.69
2023-04-15T06:32:09.157Z,99351.50
2023-04-15T06:35:11.804Z,99380.88
2023-04-15T06:38:14.690Z,99379.72
2023-04-15T06:41:18.147Z,99388.84
2023-04-15T06:44:20.852Z,99382.38
2023-04-15T06:47:23.496Z,99390.28
2023-04-15T06:50:26.081Z,99392.72
2023-04-15T06:53:28.725Z,99396.12
2023-04-15T06:56:31.140Z,99396.03
2023-04-15T06:59:33.788Z,99375.13
2023-04-15T07:02:36.156Z,99378.75
2023-04-15T07:05:39.022Z,99392.25
2023-04-15T07:08:41.880Z,99388.78
2023-04-15T07:11:44.477Z,99387.38
2023-04-15T07:14:46.897Z,99400.34
2023-04-15T07:17:50.007Z,99377.19
2023-04-15T07:20:52.637Z,99396.34
2023-04-15T07:23:55.446Z,99392.91
2023-04-15T07:27:00.867Z,99401.97
2023-04-15T07:30:04.426Z,99391.31
2023-04-15T07:33:07.217Z,99379.78
2023-04-15T07:36:10.593Z,99381.13
2023-04-15T07:39:12.990Z,99404.19
2023-04-15T07:42:15.782Z,99394.47
2023-04-15T07:45:18.080Z,99381.44
2023-04-15T07:48:21.184Z,99409.53
2023-04-15T07:51:23.568Z,99365.16
2023-04-15T07:54:26.438Z,99397.50
2023-04-15T07:57:28.921Z,99374.44
2023-04-15T08:00:32.098Z,99382.75
2023-04-15T08:03:35.206Z,99376.56
2023-04-15T08:06:40.007Z,99401.66
2023-04-15T08:09:42.763Z,99380.31
2023-04-15T08:12:49.056Z,99381.84
2023-04-15T08:16:13.779Z,99407.59
2023-04-15T08:19:15.985Z,99390.94
2023-04-15T08:22:19.669Z,99410.22
2023-04-15T08:25:23.476Z,99391.75
2023-04-15T08:28:26.303Z,99399.28
2023-04-15T08:31:29.970Z,99412.22
2023-04-15T08:34:32.573Z,99396.78
2023-04-15T08:37:34.804Z,99424.19
2023-04-15T08:40:42.871Z,99413.84
2023-04-15T08:43:53.384Z,99417.22
2023-04-15T08:46:57.305Z,99403.06
2023-04-15T08:50:01.832Z,99423.09
2023-04-15T08:53:04.817Z,99430.19
2023-04-15T08:56:10.210Z,99430.50
2023-04-15T08:59:13.293Z,99427.66
2023-04-15T09:02:16.068Z,99439.34
2023-04-15T09:05:18.723Z,99433.25
2023-04-15T09:08:21.097Z,99426.78
2023-04-15T09:11:23.781Z,99435.59
2023-04-15T09:14:26.160Z,99423.97
2023-04-15T09:17:28.912Z,99426.69
2023-04-15T09:20:39.157Z,99435.03
2023-04-15T09:23:56.116Z,99422.69
2023-04-15T09:26:58.603Z,99440.81
2023-04-15T09:30:01.229Z,99440.16
2023-04-15T09:33:08.973Z,99408.22
2023-04-15T09:36:11.979Z,99440.09
2023-04-15T09:39:14.808Z,99408.22
2023-04-15T09:42:24.265Z,99408.16
2023-04-15T09:45:29.569Z,99435.78
2023-04-15T09:48:32.589Z,99427.69
2023-04-15T09:51:35.869Z,99436.75
2023-04-15T09:54:38.935Z,99438.72
2023-04-15T09:57:41.786Z,99418.28
2023-04-15T10:00:45.053Z,99443.84
2023-04-15T10:03:48.005Z,99425.84
2023-04-15T10:06:51.227Z,99437.03
2023-04-15T10:09:54.404Z,99437.63
2023-04-15T10:12:57.197Z,99428.25
2023-04-15T10:16:07.433Z,99453.28
2023-04-15T10:19:11.321Z,99442.03
2023-04-15T10:22:15.365Z,99466.87
2023-04-15T10:25:19.141Z,99445.41
2023-04-15T10:28:25.404Z,99462.88
2023-04-15T10:31:28.627Z,99450.16
2023-04-15T10:34:32.177Z,99446.59
2023-04-15T10:37:39.083Z,99454.78
2023-04-15T10:40:42.093Z,99437.91
2023-04-15T10:43:52.896Z,99451.03
2023-04-15T10:46:58.930Z,99429.69
2023-04-15T10:50:02.443Z,99457.44
2023-04-15T10:53:05.703Z,99466.50
2023-04-15T10:56:08.337Z,99468.47
2023-04-15T10:59:11.219Z,99451.75
2023-04-15T11:02:14.696Z,99453.63
2023-04-15T11:05:18.700Z,99456.03
2023-04-15T11:08:54.081Z,99484.03
2023-04-15T11:12:10.638Z,99480.09
2023-04-15T11:15:45.702Z,99484.63
2023-04-15T11:19:00.075Z,99476.34
2023-04-15T11:22:10.184Z,99461.78
2023-04-15T11:25:26.224Z,99485.97
2023-04-15T11:28:30.613Z,99481.09
2023-04-15T11:31:33.671Z,99479.56
2023-04-15T11:37:39.263Z,99478.84
2023-04-15T11:40:45.311Z,99468.00
2023-04-15T11:43:50.773Z,99461.34
2023-04-15T11:46:53.169Z,99462.50
2023-04-15T11:49:55.853Z,99470.94
2023-04-15T11:53:06.276Z,99466.69
2023-04-15T11:56:18.225Z,99469.53
2023-04-15T11:59:20.730Z,99500.34
2023-04-15T12:02:32.375Z,99501.72
2023-04-15T12:05:35.158Z,99500.69
2023-04-15T12:08:55.749Z,99481.25
2023-04-15T12:11:58.607Z,99508.84
2023-04-15T12:15:01.891Z,99487.12
2023-04-15T12:18:05.141Z,99505.91
2023-04-15T12:21:12.213Z,99495.88
2023-04-15T12:24:15.447Z,99477.53
2023-04-15T12:27:17.923Z,99503.63
2023-04-15T12:30:20.612Z,99491.78
2023-04-15T12:33:23.038Z,99508.09
2023-04-15T12:36:25.693Z,99491.69
2023-04-15T12:39:31.213Z,99483.03
2023-04-15T12:42:33.884Z,99478.62
2023-04-15T12:45:36.655Z,99484.88
2023-04-15T12:48:40.089Z,99486.59
2023-04-15T12:51:42.836Z,99502.12
2023-04-15T12:54:45.802Z,99504.47
2023-04-15T12:57:49.254Z,99515.41
2023-04-15T13:00:51.867Z,99500.66
2023-04-15T13:03:54.290Z,99523.81
2023-04-15T13:06:56.926Z,99524.34
2023-04-15T13:09:59.272Z,99522.72
2023-04-15T13:13:02.407Z,99497.06
2023-04-15T13:16:05.224Z,99504.09
2023-04-15T13:19:08.008Z,99527.81
2023-04-15T13:22:10.408Z,99519.34
2023-04-15T13:25:13.205Z,99487.91
2023-04-15T13:28:15.783Z,99526.75
2023-04-15T13:31:18.432Z,99518.81
2023-04-15T13:34:21.175Z,99506.47
2023-04-15T13:37:28.309Z,99531.75
2023-04-15T13:40:32.097Z,99508.00
2023-04-15T13:43:34.852Z,99530.09
2023-04-15T13:46:39.568Z,99538.16
2023-04-15T13:49:42.200Z,99540.31
2023-04-15T13:52:44.736Z,99511.41
2023-04-15T13:55:47.346Z,99541.25
2023-04-15T13:58:49.894Z,99516.06
2023-04-15T14:01:53.226Z,99521.25
2023-04-15T14:04:55.930Z,99507.00
2023-04-15T14:07:59.788Z,99541.41
2023-04-15T14:11:02.465Z,99525.03
2023-04-15T14:14:05.718Z,99537.44
2023-04-15T14:17:11.578Z,99547.47
2023-04-15T14:20:15.621Z,99538.00
2023-04-15T14:23:19.932Z,99555.59
2023-04-15T14:26:22.573Z,99530.19
2023-04-15T14:29:25.786Z,99546.44
2023-04-15T14:32:28.197Z,99569.56
2023-04-15T14:35:31.083Z,99559.06
2023-04-15T14:38:38.667Z,99540.97
2023-04-15T14:41:41.861Z,99547.12
2023-04-15T14:44:44.869Z,99563.41
2023-04-15T14:47:47.670Z,99562.69
2023-04-15T14:50:50.119Z,99562.69
2023-04-15T14:53:52.749Z,99568.34
2023-04-15T14:56:56.308Z,99557.00
2023-04-15T14:59:59.224Z,99555.41
2023-04-15T15:03:02.116Z,99563.91
2023-04-15T15:06:04.947Z,99581.00
2023-04-15T15:09:07.694Z,99576.34
2023-04-15T15:12:10.407Z,99561.50
2023-04-15T15:15:28.142Z,99581.06
2023-04-15T15:18:31.409Z,99578.94
2023-04-15T15:21:33.778Z,99578.19
2023-04-15T15:24:36.445Z,99596.50
2023-04-15T15:27:38.906Z,99590.09
2023-04-15T15:30:41.587Z,99571.63
2023-04-15T15:33:44.050Z,99607.28
2023-04-15T15:36:46.708Z,99579.28
2023-04-15T15:39:50.776Z,99591.91
2023-04-15T15:42:53.445Z,99606.31
2023-04-15T15:45:56.046Z,99622.88
2023-04-15T15:48:58.881Z,99611.66
2023-04-15T15:52:01.339Z,99636.66
2023-04-15T15:55:04.217Z,99640.31
2023-04-15T15:58:06.564Z,99625.88
2023-04-15T16:01:09.312Z,99639.84
2023-04-15T16:04:12.071Z,99649.72
2023-04-15T16:07:15.806Z,99654.31
2023-04-15T16:10:18.375Z,99650.66
2023-04-15T16:13:21.097Z,99660.34
2023-04-15T16:16:24.333Z,99659.69
2023-04-15T16:19:26.829Z,99661.88
2023-04-15T16:22:29.921Z,99659.53
2023-04-15T16:25:32.315Z,99636.66
2023-04-15T16:28:34.937Z,99633.56
2023-04-15T16:31:39.905Z,99652.28
2023-04-15T16:34:42.710Z,99650.69
2023-04-15T16:37:45.015Z,99656.81
2023-04-15T16:40:47.640Z,99655.25
2023-04-15T16:43:49.998Z,99654.78
2023-04-15T16:46:52.647Z,99646.59
2023-04-15T16:49:57.188Z,99642.28
2023-04-15T16:53:02.182Z,99679.13
2023-04-15T16:56:04.720Z,99644.56
2023-04-15T16:59:25.985Z,99686.50
2023-04-15T17:02:29.584Z,99685.12
2023-04-15T17:05:32.478Z,99682.91
2023-04-15T17:08:34.881Z,99703.50
2023-04-15T17:11:41.054Z,99709.94
2023-04-15T17:14:43.399Z,99699.19
2023-04-15T17:17:46.069Z,99709.75
2023-04-15T17:20:49.678Z,99719.84
2023-04-15T17:23:52.343Z,99721.44
2023-04-15T17:27:09.712Z,99713.00
2023-04-15T17:30:18.161Z,99725.59
2023-04-15T17:33:56.376Z,99733.84
2023-04-15T17:36:45.416Z,99733.16
2023-04-15T17:39:47.894Z,99734.53
2023-04-15T17:42:50.727Z,99741.66
2023-04-15T17:45:53.428Z,99721.03
2023-04-15T17:48:57.382Z,99745.53
2023-04-15T17:52:00.351Z,99760.47
2023-04-15T17:55:03.168Z,99740.53
2023-04-15T17:58:05.721Z,99751.28
2023-04-15T18:01:08.364Z,99737.19
2023-04-15T18:04:12.757Z,99766.66
2023-04-15T18:07:15.807Z,99745.78
2023-04-15T18:10:18.790Z,99776.06
2023-04-15T18:13:21.053Z,99780.87
2023-04-15T18:16:23.797Z,99760.03
2023-04-15T18:19:26.250Z,99788.88
2023-04-15T18:22:28.950Z,99783.38
2023-04-15T18:25:31.992Z,99792.78
2023-04-15T18:28:35.792Z,99797.84
2023-04-15T18:31:38.150Z,99808.38
2023-04-15T18:34:42.838Z,99808.28
2023-04-15T18:37:45.359Z,99789.59
2023-04-15T18:40:48.152Z,99785.59
2023-04-15T18:43:50.581Z,99796.34
2023-04-15T18:46:53.185Z,99822.62
2023-04-15T18:49:55.634Z,99806.78
2023-04-15T18:52:58.280Z,99835.00
2023-04-15T18:56:03.009Z,99839.13
2023-04-15T18:59:09.724Z,99828.31
2023-04-15T19:02:28.771Z,99846.66
2023-04-15T19:05:31.465Z,99858.59
2023-04-15T19:08:34.041Z,99835.19
2023-04-15T19:11:36.998Z,99866.16
2023-04-15T19:14:39.340Z,99826.78
2023-04-15T19:17:42.019Z,99874.62
2023-04-15T19:20:44.471Z,99878.28
2023-04-15T19:23:48.201Z,99864.97
2023-04-15T19:26:51.208Z,99892.50
2023-04-15T19:29:53.997Z,99886.06
2023-04-15T19:32:56.418Z,99873.00
2023-04-15T19:36:04.451Z,99903.53
2023-04-15T19:39:07.306Z,99904.41
2023-04-15T19:42:11.045Z,99879.09
2023-04-15T19:45:13.659Z,99906.53
2023-04-15T19:48:16.806Z,99908.59
2023-04-15T19:51:19.315Z,99914.22
2023-04-15T19:54:22.797Z,99901.56
2023-04-15T19:57:25.342Z,99913.44
2023-04-15T20:00:27.994Z,99898.69
2023-04-15T20:03:31.221Z,99918.94
2023-04-15T20:06:33.832Z,99917.37
2023-04-15T20:09:36.544Z,99900.63
2023-04-15T20:12:49.545Z,99901.75
2023-04-15T20:16:06.045Z,99918.56
2023-04-15T20:19:09.396Z,99926.69
2023-04-15T20:22:12.015Z,99931.53
2023-04-15T20:25:14.535Z,99933.16
2023-04-15T20:28:18.894Z,99931.03
2023-04-15T20:31:21.773Z,99934.38
2023-04-15T20:34:24.354Z,99938.13
2023-04-15T20:37:26.782Z,99900.84
2023-04-15T20:40:29.494Z,99931.13
2023-04-15T20:43:31.908Z,99939.87
2023-04-15T20:46:34.660Z,99942.13
2023-04-15T20:49:38.802Z,99945.38
2023-04-15T20:52:41.716Z,99919.63
2023-04-15T20:55:44.645Z,99925.78
2023-04-15T20:58:47.187Z,99929.25
2023-04-15T21:01:49.738Z,99932.63
2023-04-15T21:04:52.481Z,99946.63
2023-04-15T21:07:54.856Z,99961.44
2023-04-15T21:10:57.503Z,99964.66
2023-04-15T21:14:00.080Z,99952.81
2023-04-15T21:17:11.060Z,99947.63
2023-04-15T21:20:14.099Z,99966.00
2023-04-15T21:23:16.772Z,99960.09
2023-04-15T21:26:19.178Z,99981.38
2023-04-15T21:29:21.817Z,99951.91
2023-04-15T21:32:24.236Z,99972.56
2023-04-15T21:35:27.177Z,99990.28
2023-04-15T21:38:29.691Z,99976.47
2023-04-15T21:41:36.677Z,99980.63
2023-04-15T21:44:39.037Z,99989.97
2023-04-15T21:48:05.697Z,99993.84
2023-04-15T21:51:04.456Z,99996.44
2023-04-15T21:54:07.065Z,99973.88
2023-04-15T21:57:09.402Z,100009.53
2023-04-15T22:00:13.433Z,100001.94
2023-04-15T22:03:16.505Z,99998.75
2023-04-15T22:06:19.040Z,100010.19
2023-04-15T22:09:21.697Z,100006.53
2023-04-15T22:12:23.990Z,100010.88
2023-04-15T22:15:26.982Z,100001.03
2023-04-15T22:18:29.310Z,100019.25
2023-04-15T22:21:31.970Z,100015.25
2023-04-15T22:24:40.797Z,99999.78
2023-04-15T22:27:43.977Z,100026.09
2023-04-15T22:30:46.556Z,100018.03
2023-04-15T22:33:49.316Z,100026.91
2023-04-15T22:36:52.705Z,100026.09
2023-04-15T22:39:55.517Z,100022.72
2023-04-15T22:42:57.899Z,100030.03
2023-04-15T22:46:01.181Z,100027.81
2023-04-15T22:49:04.175Z,100027.00
2023-04-15T22:52:09.061Z,100029.00
2023-04-15T22:55:14.883Z,100032.88
2023-04-15T22:58:18.431Z,100027.41
2023-04-15T23:01:21.230Z,100031.28
2023-04-15T23:04:26.879Z,100033.34
2023-04-15T23:07:30.385Z,100025.78
2023-04-15T23:10:33.268Z,100014.06
2023-04-15T23:13:36.163Z,99998.53
2023-04-15T23:16:38.989Z,100019.06
2023-04-15T23:19:41.397Z,100025.16
2023-04-15T23:22:44.243Z,100028.06
2023-04-15T23:25:46.785Z,100030.59
2023-04-15T23:28:49.426Z,100032.06
2023-04-15T23:31:51.824Z,100040.00
2023-04-15T23:34:54.557Z,100042.59
2023-04-15T23:37:56.968Z,100016.37
2023-04-15T23:40:59.602Z,100042.00
2023-04-15T23:44:07.087Z,100043.13
2023-04-15T23:47:15.776Z,100050.25
2023-04-15T23:50:18.328Z,100019.03
2023-04-15T23:53:21.085Z,100049.47
2023-04-15T23:56:23.446Z,100053.03
2023-04-15T23:59:26.142Z,99968.97
